Curitiba — 3FIP4 — position and weather

sailwx.info

Track history (hours):
 
Tides and Currents Weather Stations Pressure Air Temp Water Temp Dewpoint Dewpoint Depression Visibility Wind Speed Wind Dir Waves Ship Positions

Curitiba

Last reported at 2018-May-17 22:14 UTC. Time now 2018-May-27 09:51 UTC.
Position N 01°27' E 104°30'.
Warning: this ship's position is 9 days out of date.

Length 180 m; draft 7.8 m.

Type: Cargo ship. MMSI: 353566721.

Date/timePositionNaut miles runAvg speedWind from/ knotsBaromVisibWave heightAir tempDewpointWater temp
2018-May-17 22:14N 01°27' E 104°30'618.7
2018-May-17 21:56N 01°23' E 104°26'819.7
2018-May-17 21:30N 01°18' E 104°19'1220.0
2018-May-17 20:56N 01°16' E 104°08'819.6
2018-May-17 20:30N 01°14' E 103°60'1019.0
2018-May-17 20:00N 01°11' E 103°51'918.8
2018-May-17 19:30N 01°05' E 103°44'816.0
2018-May-17 18:59N 01°04' E 103°35'917.8
2018-May-17 18:30N 01°09' E 103°28'917.5
2018-May-17 17:59N 01°14' E 103°21'917.6
2018-May-17 17:30N 01°20' E 103°14'917.4
2018-May-17 16:59N 01°25' E 103°07'  
2018-May-11 20:16N 17°37' E 070°15'2617.2
2018-May-11 18:46N 17°59' E 070°01'517.3
2018-May-11 18:28N 18°03' E 069°57'817.4
2018-May-11 18:00N 18°08' E 069°50'917.5
2018-May-11 17:30N 18°14' E 069°43'1017.5
2018-May-11 16:57N 18°20' E 069°35'817.2
2018-May-11 16:30N 18°25' E 069°29'917.0
2018-May-11 15:59N 18°31' E 069°22'817.1
2018-May-11 15:30N 18°36' E 069°15'817.1
2018-May-11 15:00N 18°42' E 069°09'916.9
2018-May-11 14:30N 18°47' E 069°02'916.7
2018-May-11 13:59N 18°53' E 068°55'816.7
2018-May-11 13:30N 18°58' E 068°48'916.7
2018-May-11 13:00N 19°03' E 068°42'815.8
2018-May-11 12:30N 19°08' E 068°35'611.0
2018-May-11 12:00N 19°12' E 068°31'510.4
2018-May-11 11:30N 19°15' E 068°27'917.0
2018-May-11 10:59N 19°21' E 068°19'917.2
2018-May-11 10:29N 19°27' E 068°13'817.4
2018-May-11 10:00N 19°32' E 068°06'917.5
2018-May-11 09:31N 19°38' E 067°59'917.2
2018-May-11 08:58N 19°44' E 067°51'2017.2
2018-May-11 07:47N 19°57' E 067°35'16717.2
2018-May-10 22:06N 21°45' E 065°19'317.7
2018-May-10 21:57N 21°47' E 065°17'1017.6
2018-May-10 21:21N 21°54' E 065°08'617.6
2018-May-10 21:01N 21°58' E 065°03'917.3
2018-May-10 20:29N 22°02' E 064°54'1017.5
2018-May-10 19:56N 22°08' E 064°46'817.6
2018-May-10 19:29N 22°13' E 064°39'817.6
2018-May-10 19:01N 22°18' E 064°32'  
Track history (hours):
 
Tides and Currents Weather Stations Pressure Air Temp Water Temp Dewpoint Dewpoint Depression Visibility Wind Speed Wind Dir Waves Ship Positions

Curitiba

Last reported at 2018-May-17 22:14 UTC. Time now 2018-May-27 09:51 UTC.
Position N 01°27' E 104°30'.
Warning: this ship's position is 9 days out of date.

Length 180 m; draft 7.8 m.

Type: Cargo ship. MMSI: 353566721.

Date/timePositionNaut miles runAvg speedWind from/ knotsBaromVisibWave heightAir tempDewpointWater temp
2018-May-17 22:14N 01°27' E 104°30'618.7
2018-May-17 21:56N 01°23' E 104°26'819.7
2018-May-17 21:30N 01°18' E 104°19'1220.0
2018-May-17 20:56N 01°16' E 104°08'819.6
2018-May-17 20:30N 01°14' E 103°60'1019.0
2018-May-17 20:00N 01°11' E 103°51'918.8
2018-May-17 19:30N 01°05' E 103°44'816.0
2018-May-17 18:59N 01°04' E 103°35'917.8
2018-May-17 18:30N 01°09' E 103°28'917.5
2018-May-17 17:59N 01°14' E 103°21'917.6
2018-May-17 17:30N 01°20' E 103°14'917.4
2018-May-17 16:59N 01°25' E 103°07'  
2018-May-11 20:16N 17°37' E 070°15'2617.2
2018-May-11 18:46N 17°59' E 070°01'517.3
2018-May-11 18:28N 18°03' E 069°57'817.4
2018-May-11 18:00N 18°08' E 069°50'917.5
2018-May-11 17:30N 18°14' E 069°43'1017.5
2018-May-11 16:57N 18°20' E 069°35'817.2
2018-May-11 16:30N 18°25' E 069°29'917.0
2018-May-11 15:59N 18°31' E 069°22'817.1
2018-May-11 15:30N 18°36' E 069°15'817.1
2018-May-11 15:00N 18°42' E 069°09'916.9
2018-May-11 14:30N 18°47' E 069°02'916.7
2018-May-11 13:59N 18°53' E 068°55'816.7
2018-May-11 13:30N 18°58' E 068°48'916.7
2018-May-11 13:00N 19°03' E 068°42'815.8
2018-May-11 12:30N 19°08' E 068°35'611.0
2018-May-11 12:00N 19°12' E 068°31'510.4
2018-May-11 11:30N 19°15' E 068°27'917.0
2018-May-11 10:59N 19°21' E 068°19'917.2
2018-May-11 10:29N 19°27' E 068°13'817.4
2018-May-11 10:00N 19°32' E 068°06'917.5
2018-May-11 09:31N 19°38' E 067°59'917.2
2018-May-11 08:58N 19°44' E 067°51'2017.2
2018-May-11 07:47N 19°57' E 067°35'16717.2
2018-May-10 22:06N 21°45' E 065°19'317.7
2018-May-10 21:57N 21°47' E 065°17'1017.6
2018-May-10 21:21N 21°54' E 065°08'617.6
2018-May-10 21:01N 21°58' E 065°03'917.3
2018-May-10 20:29N 22°02' E 064°54'1017.5
2018-May-10 19:56N 22°08' E 064°46'817.6
2018-May-10 19:29N 22°13' E 064°39'817.6
2018-May-10 19:01N 22°18' E 064°32'  

Dump ship's entire track history